sensor_id;sensor_type;location;lat;lon;timestamp;P1;durP1;ratioP1;P2;durP2;ratioP2
1174;SDS011;576;48.418;10.074;2023-07-29T00:01:31;2.23;;;1.90;;
1174;SDS011;576;48.418;10.074;2023-07-29T00:04:00;2.00;;;1.70;;
1174;SDS011;576;48.418;10.074;2023-07-29T00:06:28;1.93;;;1.83;;
1174;SDS011;576;48.418;10.074;2023-07-29T00:08:56;2.13;;;1.93;;
1174;SDS011;576;48.418;10.074;2023-07-29T00:11:24;2.00;;;1.80;;
1174;SDS011;576;48.418;10.074;2023-07-29T00:13:53;1.87;;;1.77;;
1174;SDS011;576;48.418;10.074;2023-07-29T00:16:22;3.03;;;1.90;;
1174;SDS011;576;48.418;10.074;2023-07-29T00:18:51;2.20;;;2.00;;
1174;SDS011;576;48.418;10.074;2023-07-29T00:21:19;2.20;;;1.90;;
1174;SDS011;576;48.418;10.074;2023-07-29T00:23:47;1.80;;;1.70;;
1174;SDS011;576;48.418;10.074;2023-07-29T00:26:15;2.67;;;2.00;;
1174;SDS011;576;48.418;10.074;2023-07-29T00:28:44;2.00;;;1.83;;
1174;SDS011;576;48.418;10.074;2023-07-29T00:31:12;4.07;;;1.97;;
1174;SDS011;576;48.418;10.074;2023-07-29T00:33:41;2.00;;;1.90;;
1174;SDS011;576;48.418;10.074;2023-07-29T00:36:10;1.83;;;1.73;;
1174;SDS011;576;48.418;10.074;2023-07-29T00:38:38;2.10;;;2.00;;
1174;SDS011;576;48.418;10.074;2023-07-29T00:41:09;3.00;;;1.90;;
1174;SDS011;576;48.418;10.074;2023-07-29T00:43:40;1.93;;;1.80;;
1174;SDS011;576;48.418;10.074;2023-07-29T00:46:09;2.43;;;2.23;;
1174;SDS011;576;48.418;10.074;2023-07-29T00:48:39;4.33;;;2.23;;
1174;SDS011;576;48.418;10.074;2023-07-29T00:51:09;2.63;;;2.10;;
1174;SDS011;576;48.418;10.074;2023-07-29T00:53:37;1.70;;;1.60;;
1174;SDS011;576;48.418;10.074;2023-07-29T00:56:06;2.13;;;1.93;;
1174;SDS011;576;48.418;10.074;2023-07-29T00:58:34;1.60;;;1.47;;
1174;SDS011;576;48.418;10.074;2023-07-29T01:01:02;1.90;;;1.80;;
1174;SDS011;576;48.418;10.074;2023-07-29T01:03:30;2.17;;;2.07;;
1174;SDS011;576;48.418;10.074;2023-07-29T01:17:29;1.83;;;1.60;;
1174;SDS011;576;48.418;10.074;2023-07-29T01:20:01;1.80;;;1.63;;
1174;SDS011;576;48.418;10.074;2023-07-29T01:22:34;1.90;;;1.73;;
1174;SDS011;576;48.418;10.074;2023-07-29T01:25:05;1.83;;;1.73;;
1174;SDS011;576;48.418;10.074;2023-07-29T01:27:34;1.63;;;1.53;;
1174;SDS011;576;48.418;10.074;2023-07-29T01:30:02;2.87;;;2.67;;
1174;SDS011;576;48.418;10.074;2023-07-29T01:32:34;1.50;;;1.40;;
1174;SDS011;576;48.418;10.074;2023-07-29T01:35:10;2.23;;;2.10;;
1174;SDS011;576;48.418;10.074;2023-07-29T01:37:48;2.10;;;1.90;;
1174;SDS011;576;48.418;10.074;2023-07-29T01:40:20;2.63;;;2.13;;
1174;SDS011;576;48.418;10.074;2023-07-29T01:42:50;2.07;;;1.90;;
1174;SDS011;576;48.418;10.074;2023-07-29T01:45:19;1.60;;;1.50;;
1174;SDS011;576;48.418;10.074;2023-07-29T01:47:51;2.20;;;1.63;;
1174;SDS011;576;48.418;10.074;2023-07-29T01:50:20;2.10;;;1.90;;
1174;SDS011;576;48.418;10.074;2023-07-29T01:52:50;1.90;;;1.80;;
1174;SDS011;576;48.418;10.074;2023-07-29T01:55:18;1.80;;;1.70;;
1174;SDS011;576;48.418;10.074;2023-07-29T01:57:48;1.67;;;1.57;;
1174;SDS011;576;48.418;10.074;2023-07-29T02:00:18;2.23;;;2.07;;
1174;SDS011;576;48.418;10.074;2023-07-29T02:02:47;2.20;;;2.10;;
1174;SDS011;576;48.418;10.074;2023-07-29T02:05:15;2.10;;;2.00;;
1174;SDS011;576;48.418;10.074;2023-07-29T02:07:44;1.83;;;1.70;;
1174;SDS011;576;48.418;10.074;2023-07-29T02:10:13;1.70;;;1.53;;
1174;SDS011;576;48.418;10.074;2023-07-29T02:12:42;2.07;;;1.87;;
1174;SDS011;576;48.418;10.074;2023-07-29T02:15:13;1.47;;;1.37;;
1174;SDS011;576;48.418;10.074;2023-07-29T02:17:42;1.57;;;1.47;;
1174;SDS011;576;48.418;10.074;2023-07-29T02:20:11;1.50;;;1.40;;
1174;SDS011;576;48.418;10.074;2023-07-29T02:22:39;1.70;;;1.60;;
1174;SDS011;576;48.418;10.074;2023-07-29T02:25:08;2.00;;;1.80;;
1174;SDS011;576;48.418;10.074;2023-07-29T02:27:37;1.90;;;1.80;;
1174;SDS011;576;48.418;10.074;2023-07-29T02:30:06;1.80;;;1.70;;
1174;SDS011;576;48.418;10.074;2023-07-29T02:32:37;1.67;;;1.57;;
1174;SDS011;576;48.418;10.074;2023-07-29T02:35:06;1.67;;;1.57;;
1174;SDS011;576;48.418;10.074;2023-07-29T02:37:36;3.07;;;2.00;;
1174;SDS011;576;48.418;10.074;2023-07-29T02:40:05;1.97;;;1.77;;
1174;SDS011;576;48.418;10.074;2023-07-29T02:42:35;2.33;;;1.97;;
1174;SDS011;576;48.418;10.074;2023-07-29T02:45:04;1.93;;;1.83;;
1174;SDS011;576;48.418;10.074;2023-07-29T02:47:37;1.53;;;1.43;;
1174;SDS011;576;48.418;10.074;2023-07-29T02:50:06;1.87;;;1.70;;
1174;SDS011;576;48.418;10.074;2023-07-29T02:52:35;2.17;;;2.00;;
1174;SDS011;576;48.418;10.074;2023-07-29T02:55:03;2.10;;;1.70;;
1174;SDS011;576;48.418;10.074;2023-07-29T02:57:32;1.70;;;1.60;;
1174;SDS011;576;48.418;10.074;2023-07-29T03:00:01;1.67;;;1.40;;
1174;SDS011;576;48.418;10.074;2023-07-29T03:02:30;2.20;;;1.80;;
1174;SDS011;576;48.418;10.074;2023-07-29T03:05:00;1.93;;;1.67;;
1174;SDS011;576;48.418;10.074;2023-07-29T03:07:30;2.37;;;1.73;;
1174;SDS011;576;48.418;10.074;2023-07-29T03:09:58;2.33;;;2.20;;
1174;SDS011;576;48.418;10.074;2023-07-29T03:12:26;1.77;;;1.67;;
1174;SDS011;576;48.418;10.074;2023-07-29T03:14:55;2.40;;;1.80;;
1174;SDS011;576;48.418;10.074;2023-07-29T03:17:24;2.63;;;1.93;;
1174;SDS011;576;48.418;10.074;2023-07-29T03:19:52;1.60;;;1.50;;
1174;SDS011;576;48.418;10.074;2023-07-29T03:22:22;1.50;;;1.40;;
1174;SDS011;576;48.418;10.074;2023-07-29T03:24:51;2.00;;;1.80;;
1174;SDS011;576;48.418;10.074;2023-07-29T03:27:19;1.77;;;1.67;;
1174;SDS011;576;48.418;10.074;2023-07-29T03:29:47;2.57;;;2.37;;
1174;SDS011;576;48.418;10.074;2023-07-29T03:32:16;1.73;;;1.63;;
1174;SDS011;576;48.418;10.074;2023-07-29T03:34:44;3.77;;;2.33;;
1174;SDS011;576;48.418;10.074;2023-07-29T03:37:13;1.80;;;1.70;;
1174;SDS011;576;48.418;10.074;2023-07-29T03:39:43;1.80;;;1.70;;
1174;SDS011;576;48.418;10.074;2023-07-29T03:42:12;2.30;;;2.10;;
1174;SDS011;576;48.418;10.074;2023-07-29T03:44:40;1.70;;;1.60;;
1174;SDS011;576;48.418;10.074;2023-07-29T03:47:09;2.00;;;1.40;;
1174;SDS011;576;48.418;10.074;2023-07-29T03:49:40;1.80;;;1.70;;
1174;SDS011;576;48.418;10.074;2023-07-29T03:52:08;2.37;;;2.00;;
1174;SDS011;576;48.418;10.074;2023-07-29T03:54:37;2.13;;;2.03;;
1174;SDS011;576;48.418;10.074;2023-07-29T03:57:07;1.67;;;1.57;;
1174;SDS011;576;48.418;10.074;2023-07-29T03:59:35;1.80;;;1.70;;
1174;SDS011;576;48.418;10.074;2023-07-29T04:02:04;2.20;;;1.80;;
1174;SDS011;576;48.418;10.074;2023-07-29T04:04:33;1.70;;;1.60;;
1174;SDS011;576;48.418;10.074;2023-07-29T04:07:02;1.80;;;1.70;;
1174;SDS011;576;48.418;10.074;2023-07-29T04:09:30;1.87;;;1.77;;
1174;SDS011;576;48.418;10.074;2023-07-29T04:11:58;2.03;;;1.90;;
1174;SDS011;576;48.418;10.074;2023-07-29T04:14:28;2.20;;;2.10;;
1174;SDS011;576;48.418;10.074;2023-07-29T04:16:57;1.60;;;1.50;;
1174;SDS011;576;48.418;10.074;2023-07-29T04:19:26;1.97;;;1.87;;
1174;SDS011;576;48.418;10.074;2023-07-29T04:21:54;2.23;;;1.90;;
1174;SDS011;576;48.418;10.074;2023-07-29T04:24:23;1.90;;;1.67;;
1174;SDS011;576;48.418;10.074;2023-07-29T04:26:52;1.90;;;1.80;;
1174;SDS011;576;48.418;10.074;2023-07-29T04:29:20;1.93;;;1.83;;
1174;SDS011;576;48.418;10.074;2023-07-29T04:31:50;2.20;;;2.10;;
1174;SDS011;576;48.418;10.074;2023-07-29T04:34:19;1.90;;;1.80;;
1174;SDS011;576;48.418;10.074;2023-07-29T04:36:48;2.17;;;2.07;;
1174;SDS011;576;48.418;10.074;2023-07-29T04:39:17;2.20;;;2.10;;
1174;SDS011;576;48.418;10.074;2023-07-29T04:41:45;2.00;;;1.90;;
1174;SDS011;576;48.418;10.074;2023-07-29T04:44:14;2.40;;;2.20;;
1174;SDS011;576;48.418;10.074;2023-07-29T04:46:43;1.70;;;1.60;;
1174;SDS011;576;48.418;10.074;2023-07-29T04:49:13;2.17;;;2.07;;
1174;SDS011;576;48.418;10.074;2023-07-29T04:51:42;1.70;;;1.60;;
1174;SDS011;576;48.418;10.074;2023-07-29T04:54:11;1.50;;;1.40;;
1174;SDS011;576;48.418;10.074;2023-07-29T04:56:39;1.67;;;1.57;;
1174;SDS011;576;48.418;10.074;2023-07-29T04:59:07;1.83;;;1.73;;
1174;SDS011;576;48.418;10.074;2023-07-29T05:01:36;1.90;;;1.80;;
1174;SDS011;576;48.418;10.074;2023-07-29T05:04:05;1.77;;;1.33;;
1174;SDS011;576;48.418;10.074;2023-07-29T05:06:34;1.70;;;1.60;;
1174;SDS011;576;48.418;10.074;2023-07-29T05:09:13;1.80;;;1.70;;
1174;SDS011;576;48.418;10.074;2023-07-29T05:11:42;1.90;;;1.80;;
1174;SDS011;576;48.418;10.074;2023-07-29T05:14:12;2.03;;;1.93;;
1174;SDS011;576;48.418;10.074;2023-07-29T05:16:41;1.70;;;1.60;;
1174;SDS011;576;48.418;10.074;2023-07-29T05:19:10;1.73;;;1.63;;
1174;SDS011;576;48.418;10.074;2023-07-29T05:21:40;2.10;;;1.90;;
1174;SDS011;576;48.418;10.074;2023-07-29T05:24:08;2.03;;;1.83;;
1174;SDS011;576;48.418;10.074;2023-07-29T05:26:37;2.10;;;2.00;;
1174;SDS011;576;48.418;10.074;2023-07-29T05:29:05;1.97;;;1.87;;
1174;SDS011;576;48.418;10.074;2023-07-29T05:31:34;1.70;;;1.60;;
1174;SDS011;576;48.418;10.074;2023-07-29T05:34:02;2.10;;;2.00;;
1174;SDS011;576;48.418;10.074;2023-07-29T05:36:33;2.73;;;2.53;;
1174;SDS011;576;48.418;10.074;2023-07-29T05:39:03;2.30;;;2.10;;
1174;SDS011;576;48.418;10.074;2023-07-29T05:41:32;1.90;;;1.80;;
1174;SDS011;576;48.418;10.074;2023-07-29T05:44:00;2.80;;;2.23;;
1174;SDS011;576;48.418;10.074;2023-07-29T05:46:29;1.93;;;1.83;;
1174;SDS011;576;48.418;10.074;2023-07-29T05:48:57;2.17;;;2.07;;
1174;SDS011;576;48.418;10.074;2023-07-29T05:51:26;1.90;;;1.80;;
1174;SDS011;576;48.418;10.074;2023-07-29T05:53:55;2.10;;;1.90;;
1174;SDS011;576;48.418;10.074;2023-07-29T05:56:25;2.17;;;1.83;;
1174;SDS011;576;48.418;10.074;2023-07-29T05:58:54;1.60;;;1.50;;
1174;SDS011;576;48.418;10.074;2023-07-29T06:01:22;1.87;;;1.77;;
1174;SDS011;576;48.418;10.074;2023-07-29T06:03:51;2.57;;;2.37;;
1174;SDS011;576;48.418;10.074;2023-07-29T06:06:19;1.53;;;1.43;;
1174;SDS011;576;48.418;10.074;2023-07-29T06:08:50;1.77;;;1.60;;
1174;SDS011;576;48.418;10.074;2023-07-29T06:11:18;2.10;;;2.00;;
1174;SDS011;576;48.418;10.074;2023-07-29T06:13:48;2.03;;;1.93;;
1174;SDS011;576;48.418;10.074;2023-07-29T06:16:16;1.90;;;1.80;;
1174;SDS011;576;48.418;10.074;2023-07-29T06:18:45;1.70;;;1.57;;
1174;SDS011;576;48.418;10.074;2023-07-29T06:21:14;1.53;;;1.43;;
1174;SDS011;576;48.418;10.074;2023-07-29T06:23:43;2.63;;;1.70;;
1174;SDS011;576;48.418;10.074;2023-07-29T06:26:12;1.90;;;1.80;;
1174;SDS011;576;48.418;10.074;2023-07-29T06:28:41;1.77;;;1.67;;
1174;SDS011;576;48.418;10.074;2023-07-29T06:31:10;1.73;;;1.63;;
1174;SDS011;576;48.418;10.074;2023-07-29T06:33:38;1.80;;;1.70;;
1174;SDS011;576;48.418;10.074;2023-07-29T06:36:07;2.33;;;1.80;;
1174;SDS011;576;48.418;10.074;2023-07-29T06:38:36;2.20;;;2.10;;
1174;SDS011;576;48.418;10.074;2023-07-29T06:41:05;2.03;;;1.93;;
1174;SDS011;576;48.418;10.074;2023-07-29T06:43:33;1.80;;;1.70;;
1174;SDS011;576;48.418;10.074;2023-07-29T06:46:02;2.30;;;2.10;;
1174;SDS011;576;48.418;10.074;2023-07-29T06:48:32;1.70;;;1.60;;
1174;SDS011;576;48.418;10.074;2023-07-29T06:51:01;2.07;;;1.97;;
1174;SDS011;576;48.418;10.074;2023-07-29T06:53:29;1.53;;;1.43;;
1174;SDS011;576;48.418;10.074;2023-07-29T06:56:00;1.93;;;1.80;;
1174;SDS011;576;48.418;10.074;2023-07-29T06:58:28;1.60;;;1.50;;
1174;SDS011;576;48.418;10.074;2023-07-29T07:00:57;1.70;;;1.60;;
1174;SDS011;576;48.418;10.074;2023-07-29T07:03:25;2.00;;;1.90;;
1174;SDS011;576;48.418;10.074;2023-07-29T07:05:55;2.57;;;2.37;;
1174;SDS011;576;48.418;10.074;2023-07-29T07:08:24;1.87;;;1.77;;
1174;SDS011;576;48.418;10.074;2023-07-29T07:10:53;1.67;;;1.57;;
1174;SDS011;576;48.418;10.074;2023-07-29T07:13:22;2.17;;;1.97;;
1174;SDS011;576;48.418;10.074;2023-07-29T07:15:50;1.70;;;1.60;;
1174;SDS011;576;48.418;10.074;2023-07-29T07:18:21;2.10;;;1.90;;
1174;SDS011;576;48.418;10.074;2023-07-29T07:20:50;2.40;;;2.00;;
1174;SDS011;576;48.418;10.074;2023-07-29T07:23:21;1.73;;;1.63;;
1174;SDS011;576;48.418;10.074;2023-07-29T07:25:49;1.80;;;1.70;;
1174;SDS011;576;48.418;10.074;2023-07-29T07:28:17;2.80;;;1.83;;
1174;SDS011;576;48.418;10.074;2023-07-29T07:30:46;3.07;;;1.73;;
1174;SDS011;576;48.418;10.074;2023-07-29T07:33:14;1.90;;;1.77;;
1174;SDS011;576;48.418;10.074;2023-07-29T07:35:43;2.87;;;2.07;;
1174;SDS011;576;48.418;10.074;2023-07-29T07:38:11;2.00;;;1.90;;
1174;SDS011;576;48.418;10.074;2023-07-29T07:40:41;1.73;;;1.60;;
1174;SDS011;576;48.418;10.074;2023-07-29T07:43:09;1.83;;;1.73;;
1174;SDS011;576;48.418;10.074;2023-07-29T07:45:38;2.93;;;1.70;;
1174;SDS011;576;48.418;10.074;2023-07-29T07:48:06;1.90;;;1.80;;
1174;SDS011;576;48.418;10.074;2023-07-29T07:50:36;1.33;;;1.27;;
1174;SDS011;576;48.418;10.074;2023-07-29T07:53:05;1.97;;;1.87;;
1174;SDS011;576;48.418;10.074;2023-07-29T07:55:34;1.50;;;1.40;;
1174;SDS011;576;48.418;10.074;2023-07-29T07:58:03;2.30;;;1.80;;
1174;SDS011;576;48.418;10.074;2023-07-29T08:00:32;1.47;;;1.37;;
1174;SDS011;576;48.418;10.074;2023-07-29T08:03:01;3.20;;;1.90;;
1174;SDS011;576;48.418;10.074;2023-07-29T08:05:29;2.20;;;2.00;;
1174;SDS011;576;48.418;10.074;2023-07-29T08:07:58;2.10;;;1.90;;
1174;SDS011;576;48.418;10.074;2023-07-29T08:10:32;2.23;;;2.03;;
1174;SDS011;576;48.418;10.074;2023-07-29T08:13:12;1.90;;;1.70;;
1174;SDS011;576;48.418;10.074;2023-07-29T08:15:40;2.43;;;1.67;;
1174;SDS011;576;48.418;10.074;2023-07-29T08:18:09;2.50;;;1.60;;
1174;SDS011;576;48.418;10.074;2023-07-29T08:20:37;1.60;;;1.50;;
1174;SDS011;576;48.418;10.074;2023-07-29T08:23:05;2.20;;;1.90;;
1174;SDS011;576;48.418;10.074;2023-07-29T08:25:34;2.10;;;1.90;;
1174;SDS011;576;48.418;10.074;2023-07-29T08:28:02;1.67;;;1.57;;
1174;SDS011;576;48.418;10.074;2023-07-29T08:30:33;2.00;;;1.90;;
1174;SDS011;576;48.418;10.074;2023-07-29T08:33:01;1.93;;;1.83;;
1174;SDS011;576;48.418;10.074;2023-07-29T08:35:29;1.70;;;1.60;;
1174;SDS011;576;48.418;10.074;2023-07-29T08:37:58;2.23;;;2.03;;
1174;SDS011;576;48.418;10.074;2023-07-29T08:40:27;1.70;;;1.60;;
1174;SDS011;576;48.418;10.074;2023-07-29T08:42:57;1.73;;;1.63;;
1174;SDS011;576;48.418;10.074;2023-07-29T08:45:34;2.30;;;2.03;;
1174;SDS011;576;48.418;10.074;2023-07-29T08:48:05;2.83;;;2.63;;
1174;SDS011;576;48.418;10.074;2023-07-29T08:50:36;2.50;;;2.27;;
1174;SDS011;576;48.418;10.074;2023-07-29T08:53:05;1.83;;;1.73;;
1174;SDS011;576;48.418;10.074;2023-07-29T08:55:34;2.20;;;2.00;;
1174;SDS011;576;48.418;10.074;2023-07-29T08:58:02;3.33;;;2.30;;
1174;SDS011;576;48.418;10.074;2023-07-29T09:00:31;4.70;;;2.77;;
1174;SDS011;576;48.418;10.074;2023-07-29T09:03:02;5.93;;;3.20;;
1174;SDS011;576;48.418;10.074;2023-07-29T09:05:33;6.03;;;2.70;;
1174;SDS011;576;48.418;10.074;2023-07-29T09:08:02;3.40;;;2.60;;
1174;SDS011;576;48.418;10.074;2023-07-29T09:10:34;5.00;;;3.27;;
1174;SDS011;576;48.418;10.074;2023-07-29T09:13:03;8.00;;;3.23;;
1174;SDS011;576;48.418;10.074;2023-07-29T09:15:34;8.87;;;3.70;;
1174;SDS011;576;48.418;10.074;2023-07-29T09:18:08;14.37;;;4.70;;
1174;SDS011;576;48.418;10.074;2023-07-29T09:20:37;4.67;;;3.77;;
1174;SDS011;576;48.418;10.074;2023-07-29T09:23:07;4.40;;;3.77;;
1174;SDS011;576;48.418;10.074;2023-07-29T09:25:37;12.90;;;3.77;;
1174;SDS011;576;48.418;10.074;2023-07-29T09:28:07;7.20;;;4.27;;
1174;SDS011;576;48.418;10.074;2023-07-29T09:30:39;10.00;;;3.90;;
1174;SDS011;576;48.418;10.074;2023-07-29T09:33:09;8.87;;;3.57;;
1174;SDS011;576;48.418;10.074;2023-07-29T09:35:37;8.30;;;4.03;;
1174;SDS011;576;48.418;10.074;2023-07-29T09:38:06;10.97;;;4.63;;
1174;SDS011;576;48.418;10.074;2023-07-29T09:40:35;6.47;;;3.47;;
1174;SDS011;576;48.418;10.074;2023-07-29T09:43:04;6.20;;;3.40;;
1174;SDS011;576;48.418;10.074;2023-07-29T09:45:33;7.67;;;3.50;;
1174;SDS011;576;48.418;10.074;2023-07-29T09:48:05;10.10;;;3.80;;
1174;SDS011;576;48.418;10.074;2023-07-29T09:50:36;8.33;;;4.13;;
1174;SDS011;576;48.418;10.074;2023-07-29T09:53:05;12.33;;;4.60;;
1174;SDS011;576;48.418;10.074;2023-07-29T09:55:35;18.43;;;5.70;;
1174;SDS011;576;48.418;10.074;2023-07-29T09:58:04;19.63;;;5.63;;
1174;SDS011;576;48.418;10.074;2023-07-29T10:00:34;11.27;;;5.33;;
1174;SDS011;576;48.418;10.074;2023-07-29T10:03:06;14.43;;;5.47;;
1174;SDS011;576;48.418;10.074;2023-07-29T10:05:34;18.50;;;6.13;;
1174;SDS011;576;48.418;10.074;2023-07-29T10:08:05;12.17;;;4.90;;
1174;SDS011;576;48.418;10.074;2023-07-29T10:10:34;10.27;;;4.83;;
1174;SDS011;576;48.418;10.074;2023-07-29T10:13:02;13.60;;;5.53;;
1174;SDS011;576;48.418;10.074;2023-07-29T10:15:32;12.57;;;5.00;;
1174;SDS011;576;48.418;10.074;2023-07-29T10:18:01;15.83;;;5.03;;
1174;SDS011;576;48.418;10.074;2023-07-29T10:20:31;11.63;;;5.40;;
1174;SDS011;576;48.418;10.074;2023-07-29T10:23:01;11.90;;;4.80;;
1174;SDS011;576;48.418;10.074;2023-07-29T10:25:36;14.10;;;5.27;;
1174;SDS011;576;48.418;10.074;2023-07-29T10:28:08;11.47;;;4.60;;
1174;SDS011;576;48.418;10.074;2023-07-29T10:30:40;11.10;;;5.00;;
1174;SDS011;576;48.418;10.074;2023-07-29T10:33:09;7.53;;;4.50;;
1174;SDS011;576;48.418;10.074;2023-07-29T10:35:39;13.10;;;5.60;;
1174;SDS011;576;48.418;10.074;2023-07-29T10:38:08;13.23;;;5.13;;
1174;SDS011;576;48.418;10.074;2023-07-29T10:40:43;10.47;;;4.77;;
1174;SDS011;576;48.418;10.074;2023-07-29T10:43:13;8.97;;;4.10;;
1174;SDS011;576;48.418;10.074;2023-07-29T10:45:47;7.43;;;4.27;;
1174;SDS011;576;48.418;10.074;2023-07-29T10:48:39;8.70;;;4.80;;
1174;SDS011;576;48.418;10.074;2023-07-29T10:51:25;7.40;;;4.00;;
1174;SDS011;576;48.418;10.074;2023-07-29T10:53:56;8.10;;;4.63;;
1174;SDS011;576;48.418;10.074;2023-07-29T10:56:29;7.40;;;3.47;;
1174;SDS011;576;48.418;10.074;2023-07-29T10:58:59;3.83;;;3.23;;
1174;SDS011;576;48.418;10.074;2023-07-29T11:01:30;4.50;;;3.97;;
1174;SDS011;576;48.418;10.074;2023-07-29T11:09:59;8.17;;;4.03;;
1174;SDS011;576;48.418;10.074;2023-07-29T11:12:41;3.70;;;3.40;;
1174;SDS011;576;48.418;10.074;2023-07-29T11:15:17;5.67;;;3.17;;
1174;SDS011;576;48.418;10.074;2023-07-29T11:17:48;4.33;;;3.20;;
1174;SDS011;576;48.418;10.074;2023-07-29T11:20:19;4.53;;;3.17;;
1174;SDS011;576;48.418;10.074;2023-07-29T11:22:49;5.03;;;3.00;;
1174;SDS011;576;48.418;10.074;2023-07-29T11:25:18;6.60;;;2.90;;
1174;SDS011;576;48.418;10.074;2023-07-29T11:27:47;5.87;;;4.77;;
1174;SDS011;576;48.418;10.074;2023-07-29T11:30:16;71.53;;;40.80;;
1174;SDS011;576;48.418;10.074;2023-07-29T11:32:44;23.20;;;13.57;;
1174;SDS011;576;48.418;10.074;2023-07-29T11:35:14;14.70;;;9.63;;
1174;SDS011;576;48.418;10.074;2023-07-29T11:37:44;14.27;;;7.87;;
1174;SDS011;576;48.418;10.074;2023-07-29T11:40:15;10.80;;;6.70;;
1174;SDS011;576;48.418;10.074;2023-07-29T11:42:44;7.30;;;5.33;;
1174;SDS011;576;48.418;10.074;2023-07-29T11:45:13;6.17;;;5.47;;
1174;SDS011;576;48.418;10.074;2023-07-29T11:47:44;9.20;;;5.80;;
1174;SDS011;576;48.418;10.074;2023-07-29T11:50:13;11.17;;;5.70;;
1174;SDS011;576;48.418;10.074;2023-07-29T11:52:42;6.27;;;5.47;;
1174;SDS011;576;48.418;10.074;2023-07-29T11:55:12;7.00;;;4.77;;
1174;SDS011;576;48.418;10.074;2023-07-29T11:57:43;40.30;;;21.43;;
1174;SDS011;576;48.418;10.074;2023-07-29T12:00:11;14.93;;;9.70;;
1174;SDS011;576;48.418;10.074;2023-07-29T12:02:44;12.20;;;8.00;;
1174;SDS011;576;48.418;10.074;2023-07-29T12:05:14;9.77;;;6.87;;
1174;SDS011;576;48.418;10.074;2023-07-29T12:07:43;9.60;;;5.37;;
1174;SDS011;576;48.418;10.074;2023-07-29T12:10:12;9.43;;;5.20;;
1174;SDS011;576;48.418;10.074;2023-07-29T12:12:46;10.50;;;6.40;;
1174;SDS011;576;48.418;10.074;2023-07-29T12:15:25;9.83;;;5.70;;
1174;SDS011;576;48.418;10.074;2023-07-29T12:17:54;7.80;;;4.37;;
1174;SDS011;576;48.418;10.074;2023-07-29T12:20:24;5.37;;;3.77;;
1174;SDS011;576;48.418;10.074;2023-07-29T12:22:53;5.97;;;4.27;;
1174;SDS011;576;48.418;10.074;2023-07-29T12:25:22;6.17;;;4.40;;
1174;SDS011;576;48.418;10.074;2023-07-29T12:27:52;53.57;;;28.23;;
1174;SDS011;576;48.418;10.074;2023-07-29T12:30:21;42.80;;;21.10;;
1174;SDS011;576;48.418;10.074;2023-07-29T12:32:51;32.63;;;15.70;;
1174;SDS011;576;48.418;10.074;2023-07-29T12:35:19;18.07;;;11.43;;
1174;SDS011;576;48.418;10.074;2023-07-29T12:37:57;28.73;;;11.63;;
1174;SDS011;576;48.418;10.074;2023-07-29T12:40:26;18.93;;;10.33;;
1174;SDS011;576;48.418;10.074;2023-07-29T12:42:56;20.87;;;10.40;;
1174;SDS011;576;48.418;10.074;2023-07-29T12:45:24;21.63;;;10.23;;
1174;SDS011;576;48.418;10.074;2023-07-29T12:47:55;14.37;;;7.60;;
1174;SDS011;576;48.418;10.074;2023-07-29T12:50:24;14.60;;;8.30;;
1174;SDS011;576;48.418;10.074;2023-07-29T12:52:52;10.87;;;6.20;;
1174;SDS011;576;48.418;10.074;2023-07-29T12:55:20;8.33;;;5.77;;
1174;SDS011;576;48.418;10.074;2023-07-29T12:57:49;9.70;;;7.17;;
1174;SDS011;576;48.418;10.074;2023-07-29T13:00:19;7.87;;;5.53;;
1174;SDS011;576;48.418;10.074;2023-07-29T13:02:47;8.67;;;4.87;;
1174;SDS011;576;48.418;10.074;2023-07-29T13:05:16;7.17;;;5.00;;
1174;SDS011;576;48.418;10.074;2023-07-29T13:07:44;11.37;;;5.17;;
1174;SDS011;576;48.418;10.074;2023-07-29T13:10:13;9.57;;;5.27;;
1174;SDS011;576;48.418;10.074;2023-07-29T13:12:41;6.33;;;4.10;;
1174;SDS011;576;48.418;10.074;2023-07-29T13:15:10;8.20;;;4.63;;
1174;SDS011;576;48.418;10.074;2023-07-29T13:17:39;8.03;;;4.03;;
1174;SDS011;576;48.418;10.074;2023-07-29T13:20:08;6.83;;;4.17;;
1174;SDS011;576;48.418;10.074;2023-07-29T13:22:37;6.07;;;4.20;;
1174;SDS011;576;48.418;10.074;2023-07-29T13:25:05;4.37;;;3.90;;
1174;SDS011;576;48.418;10.074;2023-07-29T13:27:34;5.43;;;4.13;;
1174;SDS011;576;48.418;10.074;2023-07-29T13:30:03;5.50;;;3.70;;
1174;SDS011;576;48.418;10.074;2023-07-29T13:32:32;6.53;;;4.27;;
1174;SDS011;576;48.418;10.074;2023-07-29T13:35:02;5.70;;;4.20;;
1174;SDS011;576;48.418;10.074;2023-07-29T13:37:30;4.27;;;3.73;;
1174;SDS011;576;48.418;10.074;2023-07-29T13:39:59;4.87;;;3.57;;
1174;SDS011;576;48.418;10.074;2023-07-29T13:42:27;5.63;;;3.37;;
1174;SDS011;576;48.418;10.074;2023-07-29T13:44:55;6.40;;;4.07;;
1174;SDS011;576;48.418;10.074;2023-07-29T13:47:23;10.00;;;4.13;;
1174;SDS011;576;48.418;10.074;2023-07-29T13:49:51;6.03;;;4.20;;
1174;SDS011;576;48.418;10.074;2023-07-29T13:52:21;6.70;;;4.47;;
1174;SDS011;576;48.418;10.074;2023-07-29T13:54:49;13.20;;;5.13;;
1174;SDS011;576;48.418;10.074;2023-07-29T13:57:18;13.30;;;6.10;;
1174;SDS011;576;48.418;10.074;2023-07-29T13:59:46;9.67;;;4.80;;
1174;SDS011;576;48.418;10.074;2023-07-29T14:02:14;14.60;;;7.00;;
1174;SDS011;576;48.418;10.074;2023-07-29T14:04:45;17.27;;;6.93;;
1174;SDS011;576;48.418;10.074;2023-07-29T14:07:13;33.83;;;9.13;;
1174;SDS011;576;48.418;10.074;2023-07-29T14:09:43;29.67;;;7.70;;
1174;SDS011;576;48.418;10.074;2023-07-29T14:12:11;20.20;;;6.50;;
1174;SDS011;576;48.418;10.074;2023-07-29T14:14:41;24.47;;;8.57;;
1174;SDS011;576;48.418;10.074;2023-07-29T14:17:09;17.47;;;6.10;;
1174;SDS011;576;48.418;10.074;2023-07-29T14:19:38;28.87;;;8.90;;
1174;SDS011;576;48.418;10.074;2023-07-29T14:22:06;41.57;;;9.90;;
1174;SDS011;576;48.418;10.074;2023-07-29T14:24:34;16.27;;;7.90;;
1174;SDS011;576;48.418;10.074;2023-07-29T14:27:04;33.93;;;9.30;;
1174;SDS011;576;48.418;10.074;2023-07-29T14:29:33;31.43;;;7.70;;
1174;SDS011;576;48.418;10.074;2023-07-29T14:32:01;29.30;;;8.83;;
1174;SDS011;576;48.418;10.074;2023-07-29T14:34:30;46.70;;;11.17;;
1174;SDS011;576;48.418;10.074;2023-07-29T14:36:58;36.30;;;9.70;;
1174;SDS011;576;48.418;10.074;2023-07-29T14:39:26;33.87;;;9.53;;
1174;SDS011;576;48.418;10.074;2023-07-29T14:41:55;25.90;;;8.93;;
1174;SDS011;576;48.418;10.074;2023-07-29T14:44:24;34.63;;;9.50;;
1174;SDS011;576;48.418;10.074;2023-07-29T14:46:53;32.50;;;10.37;;
1174;SDS011;576;48.418;10.074;2023-07-29T14:49:21;32.20;;;9.50;;
1174;SDS011;576;48.418;10.074;2023-07-29T14:51:49;28.37;;;11.43;;
1174;SDS011;576;48.418;10.074;2023-07-29T14:54:18;27.10;;;9.30;;
1174;SDS011;576;48.418;10.074;2023-07-29T14:56:46;31.00;;;9.23;;
1174;SDS011;576;48.418;10.074;2023-07-29T14:59:14;21.87;;;8.67;;
1174;SDS011;576;48.418;10.074;2023-07-29T15:01:44;25.90;;;9.90;;
1174;SDS011;576;48.418;10.074;2023-07-29T15:04:12;38.53;;;11.03;;
1174;SDS011;576;48.418;10.074;2023-07-29T15:06:40;32.50;;;9.90;;
1174;SDS011;576;48.418;10.074;2023-07-29T15:09:09;35.23;;;9.23;;
1174;SDS011;576;48.418;10.074;2023-07-29T15:11:37;30.43;;;9.70;;
1174;SDS011;576;48.418;10.074;2023-07-29T15:14:05;31.00;;;8.67;;
1174;SDS011;576;48.418;10.074;2023-07-29T15:16:34;25.83;;;8.40;;
1174;SDS011;576;48.418;10.074;2023-07-29T15:19:04;18.23;;;7.93;;
1174;SDS011;576;48.418;10.074;2023-07-29T15:21:33;40.50;;;9.80;;
1174;SDS011;576;48.418;10.074;2023-07-29T15:24:01;28.80;;;11.60;;
1174;SDS011;576;48.418;10.074;2023-07-29T15:26:30;31.47;;;10.53;;
1174;SDS011;576;48.418;10.074;2023-07-29T15:28:58;25.87;;;9.93;;
1174;SDS011;576;48.418;10.074;2023-07-29T15:31:27;30.50;;;8.90;;
1174;SDS011;576;48.418;10.074;2023-07-29T15:33:55;23.73;;;8.40;;
1174;SDS011;576;48.418;10.074;2023-07-29T15:36:25;22.23;;;7.90;;
1174;SDS011;576;48.418;10.074;2023-07-29T15:38:53;19.70;;;8.90;;
1174;SDS011;576;48.418;10.074;2023-07-29T15:41:21;28.50;;;9.33;;
1174;SDS011;576;48.418;10.074;2023-07-29T15:43:50;28.57;;;8.73;;